首页
METAR-TAF:

METAR-TAF

机场 :

伯明翰-沙特尔斯沃思国际机场

伯明翰, 阿拉巴马州, 美国

纬度: 33-33-56N, 经度: 086-44-42W, 海拔: 196米

当前天气观测

该预报发布于36分钟前的15:53 UTC
风速19节,风向东转东南,有时为27节阵风
温度 11°C
湿度 94%
气压 1015 hPa
能見度: 4.8公里
阴天层高于600英尺
轻雾

METAR: KBHM 201553Z 12019G27KT 3SM BR OVC006 11/10 A2998 RMK AO2 PK WND 12027/1537 SLP152 T01110100

时间: 10:29 (16:29 UTC)

预报

该预报发布于5小时和2分钟前的11:27 UTC
预报有效从20日的 12点(UTC)到 21日的 12点(UTC)
风速15节,风向,有时为25节阵风
能見度: 10公里
阴天层高于600英尺
附近有阵雨
短暂存在
从 20日的 13点(UTC)到 20日的 15点(UTC)
阴天层高于400英尺
从 20日的 1600点(UTC)
风速15节,风向南转南东,有时为25节阵风
能見度: 9.7公里
阴天层高于600英尺
小阵雨, 轻雾
从 20日的 1800点(UTC)
风速15节,风向南转南东,有时为26节阵风
能見度: 4.8公里
阴天层高于600英尺, 积雨云.
阵雨, 轻雾, 附近有雷暴
几率 30%
从 20日的 21点(UTC)到 21日的 03点(UTC)
风速15节,风向多变,有时为25节阵风
能見度: 1.6公里
阴天层高于300英尺, 积雨云.
雷暴, 雨, 轻雾
从 21日的 0300点(UTC)
风速7节,风向西
能見度: 6.4公里
阴天层高于700英尺
小雨, 轻雾

TAF: KBHM 201127Z 2012/2112 10015G25KT P6SM VCSH OVC006 TEMPO 2013/2015 OVC004 FM201600 15015G25KT 6SM -SHRA BR OVC006 FM201800 16015G26KT 3SM SHRA BR VCTS OVC006CB PROB30 2021/2103 VRB15G25KT 1SM TSRA BR OVC003CB FM210300 26007KT 4SM -RA BR OVC007

超过4000个机场的气象观测和天气预报(METAR&TAF报告)。

可查询的气象台以黄色和红色小点在地图上表示。

将鼠标移到小点上方,可查看气象台名称。

然后点击查看天气观测和预报。

如需切换地图:点击带黑十字的绿色按钮放大地图;点击带横线的绿色按钮缩小地图;或者点击绿色箭头查看邻近地区的地图。


METAR-TAF: